Naples, FL (34117)

2:17 PM EDT on August 25, 2016 (GMT -0400)
Chrysler Florida Evaluation Center | | Change Station

Elev 26 ft 26.17 °N, 81.50 °W | Updated 15 seconds ago

Scattered Clouds
Scattered Clouds
91.1 °F
Feels Like 104 °F
N
4.1
Wind Variable Wind from NE
Gusts 5.7 mph

Today
High -- | Low -- °F
--% Chance of Precip.
Yesterday
High -- | Low -- °F
Precip. -- in
Pressure 29.96 in
Visibility 10.0 miles
Clouds Few 3100 ft
Few 3800 ft
Scattered Clouds 4400 ft
Heat Index 104 °F
Dew Point 76 °F
Humidity 62%
Rainfall 0.00 in
Snow Depth Not available.
7:03 AM 7:52 PM
Last Quarter, 43% visible
METAR KMKY 251815Z AUTO 03007KT 10SM FEW031 FEW038 SCT044 33/23 A2996 RMK AO1
Pressure 29.96 in
Visibility 10.0 miles
Clouds Few 3100 ft
Few 3800 ft
Scattered Clouds 4400 ft
Heat Index 104 °F
Dew Point 76 °F
Humidity 62%
Rainfall 0.00 in
Snow Depth Not available.
7:03 AM 7:52 PM
Last Quarter, 43% visible
METAR KMKY 251815Z AUTO 03007KT 10SM FEW031 FEW038 SCT044 33/23 A2996 RMK AO1
A tropical disturbance pushing toward the Bahamas, is expected to develop into a tropical depression or storm, and will likely target Florida and the Gulf Coast this weekend into next week.

Right now, the disturbance remains a broad area of low pressure pushing through the Dominican Republic and Haiti, headed toward the southeast Bahamas. Rainfall totals over 3 inches (with locally higher amounts) are expected in HispaƱiola, particularly over elevated terrain.

10-Day Weather Forecast

Almanac

Astronomy

Aug. 25, 2016 Rise Set
Actual Time
Civil Twilight
Nautical Twilight
Astronomical Twilight
Moon
Length of Visible Light
Length of Day
Tomorrow will be .
, % of the Moon is Illuminated

Today's Extremes

State Highs State Lows

Community

WunderPhotos

Upload Photos

1,934,890 photos uploaded!

WunderBlog® & News

Nearby

Air Quality

  Air Quality AQ Index Pollutant
Not available.

Snow Depth

Station Depth Elevation

Earthquake Activity

City Distance Mag. Time & Date
Minimum magnitude displayed is 2.5.

Coastal Water Temperatures

Place Temperature

Stations

Nearby Weather Stations

Station Location Temp. Windchill Dew Point Humidity Wind Precip. Elev Updated Type
                   

Watches & Warnings

There are currently no watches in effect.